首页
METAR-TAF:

METAR-TAF

机场 :

Narsarsuaq, 格陵兰

纬度: 61-10N, 经度: 045-25W, 海拔: 34米

当前天气观测

该预报发布于1小时和11分钟前的23:50 UTC
风速11节,风向西南
温度 10°C
湿度 71%
气压 1008 hPa
能见度10公里或以上
多云层高于7200英尺
多云层高于8000英尺

METAR: BGBW 152350Z 23011KT 9999 BKN072 BKN080 10/05 Q1008

时间: 23:01 (01:01 UTC)

预报

该预报发布于4小时和25分钟前的20:36 UTC
预报有效从15日的 21点(UTC)到 16日的 01点(UTC)
风速8节,风向西南
能见度10公里或以上
散云层高于3000英尺
短暂存在
从 15日的 21点(UTC)到 16日的 01点(UTC)
多云层高于3000英尺

TAF: BGBW 152036Z 1521/1601 22008KT 9999 SCT030 TEMPO 1521/1601 BKN030

超过4000个机场的气象观测和天气预报(METAR&TAF报告)。

可查询的气象台以黄色和红色小点在地图上表示。

将鼠标移到小点上方,可查看气象台名称。

然后点击查看天气观测和预报。

如需切换地图:点击带黑十字的绿色按钮放大地图;点击带横线的绿色按钮缩小地图;或者点击绿色箭头查看邻近地区的地图。


METAR-TAF: